createdAt,value
2023-01-20T00:00:25.300Z,99500.34
2023-01-20T00:03:17.740Z,99508.42
2023-01-20T00:05:54.966Z,99508.45
2023-01-20T00:08:27.337Z,99506.89
2023-01-20T00:10:59.811Z,99508.84
2023-01-20T00:13:32.290Z,99513.02
2023-01-20T00:16:07.797Z,99514.02
2023-01-20T00:18:40.852Z,99515.60
2023-01-20T00:21:16.913Z,99516.56
2023-01-20T00:23:50.213Z,99519.27
2023-01-20T00:26:24.677Z,99517.56
2023-01-20T00:28:58.918Z,99518.54
2023-01-20T00:31:33.427Z,99522.70
2023-01-20T00:34:06.507Z,99525.89
2023-01-20T00:36:39.006Z,99522.06
2023-01-20T00:39:11.386Z,99517.67
2023-01-20T00:41:43.730Z,99523.54
2023-01-20T00:44:16.122Z,99525.27
2023-01-20T00:46:48.592Z,99528.92
2023-01-20T00:49:21.125Z,99532.28
2023-01-20T00:51:53.577Z,99536.17
2023-01-20T00:54:25.962Z,99544.91
2023-01-20T00:56:58.502Z,99552.89
2023-01-20T00:59:30.953Z,99559.65
2023-01-20T01:02:03.632Z,99567.65
2023-01-20T01:04:36.111Z,99567.45
2023-01-20T01:07:08.505Z,99571.10
2023-01-20T01:09:40.991Z,99573.30
2023-01-20T01:12:13.482Z,99573.61
2023-01-20T01:14:45.703Z,99571.75
2023-01-20T01:17:18.259Z,99569.42
2023-01-20T01:19:50.681Z,99571.20
2023-01-20T01:22:23.717Z,99574.19
2023-01-20T01:24:56.116Z,99578.44
2023-01-20T01:27:30.510Z,99578.13
2023-01-20T01:30:02.966Z,99582.64
2023-01-20T01:32:35.384Z,99587.23
2023-01-20T01:35:08.871Z,99587.31
2023-01-20T01:37:41.230Z,99586.31
2023-01-20T01:40:14.917Z,99586.26
2023-01-20T01:42:47.286Z,99589.03
2023-01-20T01:45:28.039Z,99586.21
2023-01-20T01:48:07.432Z,99583.67
2023-01-20T01:50:45.797Z,99572.25
2023-01-20T01:53:18.663Z,99568.77
2023-01-20T01:55:55.594Z,99568.72
2023-01-20T01:58:33.623Z,99572.63
2023-01-20T02:01:06.451Z,99576.59
2023-01-20T02:03:46.151Z,99578.31
2023-01-20T02:06:19.630Z,99583.30
2023-01-20T02:08:52.486Z,99592.58
2023-01-20T02:11:25.225Z,99593.21
2023-01-20T02:13:58.027Z,99596.52
2023-01-20T02:16:41.682Z,99598.27
2023-01-20T02:19:33.288Z,99603.77
2023-01-20T02:22:16.667Z,99613.14
2023-01-20T02:25:17.074Z,99618.64
2023-01-20T02:28:30.715Z,99618.77
2023-01-20T02:31:26.284Z,99616.39
2023-01-20T02:34:03.391Z,99617.23
2023-01-20T02:36:43.426Z,99617.90
2023-01-20T02:39:27.343Z,99622.81
2023-01-20T02:42:08.243Z,99625.38
2023-01-20T02:44:44.375Z,99630.67
2023-01-20T02:47:20.533Z,99630.69
2023-01-20T02:49:59.310Z,99632.64
2023-01-20T02:52:36.956Z,99634.21
2023-01-20T02:55:14.506Z,99630.38
2023-01-20T02:57:50.632Z,99633.90
2023-01-20T03:00:29.356Z,99638.20
2023-01-20T03:03:04.111Z,99640.38
2023-01-20T03:05:42.312Z,99643.78
2023-01-20T03:08:16.106Z,99648.08
2023-01-20T03:10:52.551Z,99646.34
2023-01-20T03:13:31.347Z,99645.95
2023-01-20T03:16:07.670Z,99641.77
2023-01-20T03:18:40.800Z,99642.29
2023-01-20T03:21:14.025Z,99637.48
2023-01-20T03:23:49.928Z,99632.14
2023-01-20T03:26:23.951Z,99629.71
2023-01-20T03:28:56.741Z,99631.52
2023-01-20T03:31:35.586Z,99635.58
2023-01-20T03:34:12.862Z,99628.12
2023-01-20T03:36:46.843Z,99625.05
2023-01-20T03:39:20.065Z,99628.92
2023-01-20T03:41:59.735Z,99631.55
2023-01-20T03:44:43.084Z,99633.13
2023-01-20T03:47:25.214Z,99634.30
2023-01-20T03:50:07.724Z,99636.22
2023-01-20T03:52:50.261Z,99633.98
2023-01-20T03:55:26.188Z,99640.52
2023-01-20T03:58:03.578Z,99642.89
2023-01-20T04:00:38.777Z,99642.66
2023-01-20T04:03:12.406Z,99643.85
2023-01-20T04:05:46.843Z,99649.16
2023-01-20T04:08:23.415Z,99662.73
2023-01-20T04:10:57.351Z,99667.63
2023-01-20T04:13:29.722Z,99671.08
2023-01-20T04:16:03.663Z,99673.55
2023-01-20T04:18:36.132Z,99676.80
2023-01-20T04:21:11.785Z,99682.91
2023-01-20T04:23:49.390Z,99689.17
2023-01-20T04:26:21.831Z,99696.48
2023-01-20T04:28:54.227Z,99702.33
2023-01-20T04:31:31.185Z,99701.79
2023-01-20T04:34:04.144Z,99704.45
2023-01-20T04:36:36.570Z,99712.75
2023-01-20T04:39:09.231Z,99718.73
2023-01-20T04:41:41.597Z,99722.17
2023-01-20T04:44:14.008Z,99726.05
2023-01-20T04:46:47.550Z,99731.25
2023-01-20T04:49:19.996Z,99732.48
2023-01-20T04:51:52.346Z,99733.41
2023-01-20T04:54:24.691Z,99734.21
2023-01-20T04:56:57.062Z,99735.52
2023-01-20T04:59:29.534Z,99737.64
2023-01-20T05:02:02.055Z,99738.19
2023-01-20T05:04:34.552Z,99743.42
2023-01-20T05:07:06.994Z,99751.48
2023-01-20T05:09:39.595Z,99753.65
2023-01-20T05:12:12.016Z,99758.14
2023-01-20T05:14:44.293Z,99763.22
2023-01-20T05:17:16.690Z,99762.84
2023-01-20T05:19:49.136Z,99768.96
2023-01-20T05:22:21.433Z,99771.31
2023-01-20T05:24:53.742Z,99775.69
2023-01-20T05:27:26.127Z,99778.98
2023-01-20T05:29:58.449Z,99781.84
2023-01-20T05:32:30.946Z,99787.28
2023-01-20T05:35:03.376Z,99791.66
2023-01-20T05:37:35.805Z,99789.02
2023-01-20T05:40:10.147Z,99790.02
2023-01-20T05:42:42.644Z,99790.59
2023-01-20T05:45:15.414Z,99794.98
2023-01-20T05:47:48.042Z,99801.40
2023-01-20T05:50:20.795Z,99809.00
2023-01-20T05:52:53.191Z,99808.25
2023-01-20T05:55:25.791Z,99815.47
2023-01-20T05:57:58.056Z,99823.38
2023-01-20T06:00:30.816Z,99830.36
2023-01-20T06:03:03.494Z,99847.61
2023-01-20T06:05:35.871Z,99855.17
2023-01-20T06:08:09.089Z,99860.64
2023-01-20T06:10:41.417Z,99868.93
2023-01-20T06:13:14.131Z,99876.60
2023-01-20T06:15:46.681Z,99875.94
2023-01-20T06:18:19.171Z,99881.83
2023-01-20T06:20:51.754Z,99889.66
2023-01-20T06:23:24.120Z,99899.10
2023-01-20T06:26:03.414Z,99905.14
2023-01-20T06:28:36.346Z,99910.48
2023-01-20T06:31:11.171Z,99917.38
2023-01-20T06:33:44.773Z,99919.04
2023-01-20T06:36:17.824Z,99921.45
2023-01-20T06:38:51.103Z,99922.69
2023-01-20T06:41:24.341Z,99926.75
2023-01-20T06:43:56.645Z,99931.82
2023-01-20T06:46:28.938Z,99934.21
2023-01-20T06:49:01.402Z,99941.39
2023-01-20T06:51:34.664Z,99941.61
2023-01-20T06:54:07.161Z,99943.58
2023-01-20T06:56:39.491Z,99948.91
2023-01-20T06:59:12.321Z,99958.70
2023-01-20T07:01:44.705Z,99964.64
2023-01-20T07:04:17.476Z,99971.21
2023-01-20T07:06:49.873Z,99974.46
2023-01-20T07:09:22.383Z,99975.55
2023-01-20T07:11:54.720Z,99978.92
2023-01-20T07:14:27.046Z,99979.52
2023-01-20T07:16:59.417Z,99980.08
2023-01-20T07:19:31.794Z,99980.97
2023-01-20T07:22:04.163Z,99986.41
2023-01-20T07:24:36.535Z,99983.53
2023-01-20T07:27:08.791Z,99981.98
2023-01-20T07:29:41.234Z,99983.70
2023-01-20T07:32:13.632Z,99987.34
2023-01-20T07:34:47.269Z,99990.92
2023-01-20T07:37:21.166Z,99997.25
2023-01-20T07:39:53.716Z,100002.89
2023-01-20T07:42:26.375Z,100009.56
2023-01-20T07:44:59.130Z,100010.58
2023-01-20T07:47:31.505Z,100022.82
2023-01-20T07:50:03.798Z,100023.58
2023-01-20T07:52:36.200Z,100029.07
2023-01-20T07:55:10.730Z,100031.63
2023-01-20T07:57:43.087Z,100035.86
2023-01-20T08:00:16.876Z,100041.29
2023-01-20T08:02:49.197Z,100043.81
2023-01-20T08:05:22.542Z,100050.05
2023-01-20T08:07:55.323Z,100052.35
2023-01-20T08:10:29.005Z,100056.99
2023-01-20T08:13:02.166Z,100056.40
2023-01-20T08:15:34.494Z,100050.76
2023-01-20T08:18:06.976Z,100050.23
2023-01-20T08:20:42.648Z,100053.96
2023-01-20T08:23:15.017Z,100060.72
2023-01-20T08:25:47.398Z,100065.06
2023-01-20T08:28:19.761Z,100071.38
2023-01-20T08:30:52.237Z,100072.95
2023-01-20T08:33:24.662Z,100071.55
2023-01-20T08:35:59.333Z,100070.86
2023-01-20T08:38:31.713Z,100074.52
2023-01-20T08:41:07.079Z,100073.86
2023-01-20T08:43:39.837Z,100074.20
2023-01-20T08:46:14.590Z,100073.78
2023-01-20T08:48:47.345Z,100079.11
2023-01-20T08:51:21.348Z,100084.99
2023-01-20T08:53:54.144Z,100086.59
2023-01-20T08:56:26.897Z,100083.65
2023-01-20T08:59:01.653Z,100089.89
2023-01-20T09:01:38.005Z,100093.08
2023-01-20T09:04:10.929Z,100091.05
2023-01-20T09:06:46.454Z,100092.23
2023-01-20T09:09:20.907Z,100088.17
2023-01-20T09:11:53.583Z,100088.58
2023-01-20T09:14:27.006Z,100097.70
2023-01-20T09:17:00.609Z,100102.35
2023-01-20T09:19:33.010Z,100112.78
2023-01-20T09:22:05.888Z,100118.45
2023-01-20T09:24:38.262Z,100117.59
2023-01-20T09:27:10.607Z,100111.14
2023-01-20T09:29:42.985Z,100103.98
2023-01-20T09:32:15.866Z,100096.96
2023-01-20T09:34:48.319Z,100091.08
2023-01-20T09:37:37.483Z,100086.45
2023-01-20T09:40:34.176Z,100087.58
2023-01-20T09:43:37.347Z,100096.36
2023-01-20T09:46:15.329Z,100105.44
2023-01-20T09:49:12.857Z,100105.45
2023-01-20T09:52:12.733Z,100098.19
2023-01-20T09:54:49.893Z,100094.13
2023-01-20T09:57:25.900Z,100085.64
2023-01-20T10:00:06.576Z,100088.25
2023-01-20T10:02:41.734Z,100092.69
2023-01-20T10:05:20.222Z,100093.16
2023-01-20T10:07:59.097Z,100100.85
2023-01-20T10:10:37.823Z,100101.41
2023-01-20T10:13:18.360Z,100104.30
2023-01-20T10:15:54.078Z,100110.02
2023-01-20T10:18:38.106Z,100115.73
2023-01-20T10:21:14.456Z,100125.76
2023-01-20T10:23:53.266Z,100128.55
2023-01-20T10:26:38.323Z,100125.88
2023-01-20T10:29:17.500Z,100124.37
2023-01-20T10:31:54.777Z,100130.40
2023-01-20T10:34:33.339Z,100137.58
2023-01-20T10:37:10.653Z,100139.96
2023-01-20T10:39:49.142Z,100141.66
2023-01-20T10:42:24.333Z,100150.37
2023-01-20T10:44:55.550Z,100152.98
2023-01-20T10:47:42.890Z,100153.63
2023-01-20T10:50:32.172Z,100157.77
2023-01-20T10:53:22.536Z,100160.52
2023-01-20T10:56:08.965Z,100163.52
2023-01-20T10:58:45.483Z,100162.59
2023-01-20T11:01:20.220Z,100161.00
2023-01-20T11:03:52.722Z,100162.38
2023-01-20T11:06:27.909Z,100163.70
2023-01-20T11:09:01.389Z,100169.06
2023-01-20T11:11:34.409Z,100172.98
2023-01-20T11:14:09.323Z,100175.74
2023-01-20T11:16:44.956Z,100177.76
2023-01-20T11:19:17.397Z,100174.08
2023-01-20T11:21:51.077Z,100177.78
2023-01-20T11:24:42.546Z,100179.38
2023-01-20T11:27:18.137Z,100179.19
2023-01-20T11:29:54.133Z,100176.80
2023-01-20T11:32:35.921Z,100174.61
2023-01-20T11:35:23.273Z,100179.84
2023-01-20T11:37:55.674Z,100180.25
2023-01-20T11:40:30.017Z,100179.48
2023-01-20T11:43:02.466Z,100179.41
2023-01-20T11:45:36.319Z,100179.39
2023-01-20T11:48:21.651Z,100176.39
2023-01-20T11:50:58.637Z,100177.44
2023-01-20T11:53:32.288Z,100174.50
2023-01-20T11:56:07.250Z,100179.96
2023-01-20T11:58:50.442Z,100178.48
2023-01-20T12:01:27.733Z,100181.14
2023-01-20T12:04:28.866Z,100181.82
2023-01-20T12:07:08.293Z,100185.30
2023-01-20T12:09:44.201Z,100193.36
2023-01-20T12:12:25.506Z,100195.72
2023-01-20T12:15:03.552Z,100196.33
2023-01-20T12:17:53.699Z,100198.98
2023-01-20T12:20:42.373Z,100198.42
2023-01-20T12:23:31.291Z,100197.86
2023-01-20T12:26:06.445Z,100205.20
2023-01-20T12:28:43.640Z,100202.83
2023-01-20T12:31:20.264Z,100207.73
2023-01-20T12:33:57.612Z,100212.39
2023-01-20T12:36:58.270Z,100221.16
2023-01-20T12:39:52.443Z,100223.88
2023-01-20T12:43:00.980Z,100225.48
2023-01-20T12:45:48.214Z,100234.11
2023-01-20T12:48:34.619Z,100237.30
2023-01-20T12:51:22.489Z,100242.41
2023-01-20T12:54:21.953Z,100242.67
2023-01-20T12:57:03.275Z,100253.09
2023-01-20T12:59:48.699Z,100254.48
2023-01-20T13:02:40.446Z,100250.73
2023-01-20T13:05:44.058Z,100248.86
2023-01-20T13:08:24.621Z,100258.69
2023-01-20T13:11:12.638Z,100262.14
2023-01-20T13:14:00.320Z,100265.27
2023-01-20T13:16:41.012Z,100264.35
2023-01-20T13:19:20.886Z,100272.17
2023-01-20T13:22:07.227Z,100274.60
2023-01-20T13:24:44.858Z,100268.23
2023-01-20T13:27:20.977Z,100264.04
2023-01-20T13:29:58.746Z,100265.73
2023-01-20T13:32:37.778Z,100265.95
2023-01-20T13:35:40.995Z,100270.55
2023-01-20T13:38:22.021Z,100273.38
2023-01-20T13:41:03.277Z,100267.28
2023-01-20T13:43:51.194Z,100266.38
2023-01-20T13:46:47.498Z,100271.17
2023-01-20T13:49:29.628Z,100273.78
2023-01-20T13:52:02.000Z,100275.44
2023-01-20T13:54:48.400Z,100279.85
2023-01-20T13:57:38.322Z,100277.59
2023-01-20T14:00:21.086Z,100278.86
2023-01-20T14:02:54.253Z,100273.90
2023-01-20T14:05:34.762Z,100278.45
2023-01-20T14:08:13.915Z,100288.05
2023-01-20T14:10:46.620Z,100292.55
2023-01-20T14:13:24.245Z,100292.44
2023-01-20T14:15:58.208Z,100300.40
2023-01-20T14:18:31.831Z,100303.15
2023-01-20T14:21:17.213Z,100307.31
2023-01-20T14:23:49.565Z,100308.11
2023-01-20T14:26:26.805Z,100307.52
2023-01-20T14:29:01.035Z,100310.04
2023-01-20T14:31:40.862Z,100317.27
2023-01-20T14:34:27.541Z,100321.98
2023-01-20T14:37:03.790Z,100321.89
2023-01-20T14:39:36.775Z,100324.73
2023-01-20T14:42:20.916Z,100323.49
2023-01-20T14:44:54.827Z,100324.61
2023-01-20T14:47:28.605Z,100320.34
2023-01-20T14:50:03.192Z,100319.69
2023-01-20T14:52:35.681Z,100319.08
2023-01-20T14:55:22.571Z,100321.83
2023-01-20T14:57:55.302Z,100325.56
2023-01-20T15:00:30.511Z,100324.66
2023-01-20T15:03:11.498Z,100319.70
2023-01-20T15:05:54.846Z,100320.39
2023-01-20T15:08:30.058Z,100326.56
2023-01-20T15:11:31.501Z,100334.67
2023-01-20T15:14:14.004Z,100344.18
2023-01-20T15:16:53.704Z,100345.23
2023-01-20T15:19:46.283Z,100349.54
2023-01-20T15:22:27.806Z,100361.22
2023-01-20T15:25:13.496Z,100366.27
2023-01-20T15:27:53.108Z,100367.78
2023-01-20T15:30:29.891Z,100374.77
2023-01-20T15:33:02.208Z,100374.34
2023-01-20T15:35:35.938Z,100375.49
2023-01-20T15:38:12.844Z,100386.45
2023-01-20T15:40:45.221Z,100397.04
2023-01-20T15:43:19.229Z,100398.12
2023-01-20T15:45:51.601Z,100401.70
2023-01-20T15:48:24.845Z,100408.00
2023-01-20T15:50:57.363Z,100420.38
2023-01-20T15:53:29.612Z,100421.08
2023-01-20T15:56:03.164Z,100420.18
2023-01-20T15:58:38.087Z,100417.86
2023-01-20T16:01:13.779Z,100421.31
2023-01-20T16:03:46.508Z,100422.38
2023-01-20T16:06:20.595Z,100426.41
2023-01-20T16:08:53.352Z,100432.77
2023-01-20T16:11:25.748Z,100437.09
2023-01-20T16:13:58.357Z,100444.48
2023-01-20T16:16:33.380Z,100447.50
2023-01-20T16:19:06.806Z,100448.23
2023-01-20T16:21:39.140Z,100455.10
2023-01-20T16:24:12.331Z,100462.34
2023-01-20T16:26:47.151Z,100473.20
2023-01-20T16:29:19.555Z,100475.69
2023-01-20T16:31:52.157Z,100481.83
2023-01-20T16:34:24.529Z,100492.77
2023-01-20T16:36:57.014Z,100498.84
2023-01-20T16:39:29.300Z,100505.11
2023-01-20T16:42:01.761Z,100506.13
2023-01-20T16:44:34.200Z,100506.44
2023-01-20T16:47:08.381Z,100509.77
2023-01-20T16:49:40.965Z,100507.42
2023-01-20T16:52:14.786Z,100503.28
2023-01-20T16:54:47.739Z,100506.85
2023-01-20T16:57:20.468Z,100508.86
2023-01-20T16:59:52.920Z,100518.14
2023-01-20T17:02:25.425Z,100517.51
2023-01-20T17:04:57.997Z,100520.89
2023-01-20T17:07:30.602Z,100521.21
2023-01-20T17:10:03.524Z,100523.00
2023-01-20T17:12:36.058Z,100523.23
2023-01-20T17:15:10.169Z,100528.16
2023-01-20T17:17:42.603Z,100523.23
2023-01-20T17:20:15.497Z,100526.41
2023-01-20T17:22:48.421Z,100526.71
2023-01-20T17:25:20.796Z,100526.54
2023-01-20T17:27:53.297Z,100526.25
2023-01-20T17:30:26.579Z,100529.02
2023-01-20T17:32:59.175Z,100531.05
2023-01-20T17:35:31.509Z,100538.05
2023-01-20T17:38:03.812Z,100536.50
2023-01-20T17:40:36.237Z,100536.09
2023-01-20T17:43:08.636Z,100538.92
2023-01-20T17:45:41.865Z,100537.13
2023-01-20T17:48:14.419Z,100539.88
2023-01-20T17:50:47.046Z,100540.81
2023-01-20T17:53:19.562Z,100542.80
2023-01-20T17:56:02.985Z,100544.23
2023-01-20T17:58:44.820Z,100539.40
2023-01-20T18:01:19.187Z,100540.30
2023-01-20T18:03:53.638Z,100549.73
2023-01-20T18:06:27.857Z,100551.13
2023-01-20T18:09:01.916Z,100556.17
2023-01-20T18:11:36.707Z,100553.62
2023-01-20T18:14:09.503Z,100553.11
2023-01-20T18:16:42.900Z,100551.88
2023-01-20T18:19:16.290Z,100552.92
2023-01-20T18:21:48.853Z,100550.44
2023-01-20T18:24:21.325Z,100557.30
2023-01-20T18:26:54.599Z,100558.08
2023-01-20T18:29:30.208Z,100561.45
2023-01-20T18:32:02.753Z,100565.08
2023-01-20T18:34:35.454Z,100566.58
2023-01-20T18:37:07.897Z,100563.97
2023-01-20T18:39:40.317Z,100560.55
2023-01-20T18:42:12.921Z,100562.81
2023-01-20T18:44:45.569Z,100564.52
2023-01-20T18:47:18.101Z,100564.98
2023-01-20T18:49:50.706Z,100564.30
2023-01-20T18:52:23.257Z,100563.54
2023-01-20T18:54:55.810Z,100569.17
2023-01-20T18:57:28.340Z,100570.19
2023-01-20T19:00:00.810Z,100574.45
2023-01-20T19:02:34.399Z,100578.69
2023-01-20T19:05:09.543Z,100580.75
2023-01-20T19:07:41.946Z,100582.50
2023-01-20T19:10:15.310Z,100587.67
2023-01-20T19:12:48.590Z,100587.65
2023-01-20T19:15:21.809Z,100589.23
2023-01-20T19:17:54.924Z,100593.31
2023-01-20T19:20:27.348Z,100594.92
2023-01-20T19:22:59.803Z,100597.98
2023-01-20T19:25:32.300Z,100600.13
2023-01-20T19:28:06.674Z,100601.14
2023-01-20T19:30:39.627Z,100600.39
2023-01-20T19:33:12.304Z,100601.77
2023-01-20T19:35:44.787Z,100606.52
2023-01-20T19:38:17.621Z,100604.45
2023-01-20T19:40:50.383Z,100604.73
2023-01-20T19:43:22.875Z,100614.13
2023-01-20T19:45:55.260Z,100614.00
2023-01-20T19:48:27.634Z,100618.55
2023-01-20T19:51:05.060Z,100619.13
2023-01-20T19:53:38.201Z,100618.25
2023-01-20T19:56:15.419Z,100614.03
2023-01-20T19:58:49.408Z,100618.02
2023-01-20T20:01:23.236Z,100622.98
2023-01-20T20:03:56.640Z,100623.85
2023-01-20T20:06:32.243Z,100626.66
2023-01-20T20:09:07.061Z,100626.41
2023-01-20T20:11:40.169Z,100630.63
2023-01-20T20:14:15.117Z,100636.79
2023-01-20T20:16:48.462Z,100636.45
2023-01-20T20:19:22.789Z,100638.13
2023-01-20T20:21:56.560Z,100631.91
2023-01-20T20:24:29.190Z,100635.52
2023-01-20T20:27:01.642Z,100635.14
2023-01-20T20:29:34.321Z,100636.91
2023-01-20T20:32:07.313Z,100634.35
2023-01-20T20:34:40.092Z,100641.18
2023-01-20T20:37:12.669Z,100645.73
2023-01-20T20:39:45.837Z,100646.66
2023-01-20T20:42:18.429Z,100639.52
2023-01-20T20:44:50.783Z,100636.94
2023-01-20T20:47:24.666Z,100635.23
2023-01-20T20:49:58.753Z,100634.27
2023-01-20T20:52:31.637Z,100638.16
2023-01-20T20:55:04.065Z,100641.41
2023-01-20T20:57:37.127Z,100643.66
2023-01-20T21:00:12.481Z,100645.70
2023-01-20T21:02:44.853Z,100641.06
2023-01-20T21:05:19.080Z,100638.16
2023-01-20T21:07:52.071Z,100639.56
2023-01-20T21:10:24.601Z,100646.70
2023-01-20T21:12:57.742Z,100648.87
2023-01-20T21:15:31.083Z,100644.88
2023-01-20T21:18:03.717Z,100641.73
2023-01-20T21:20:36.483Z,100640.42
2023-01-20T21:23:09.030Z,100643.52
2023-01-20T21:25:41.344Z,100644.80
2023-01-20T21:28:13.875Z,100645.05
2023-01-20T21:30:46.847Z,100647.98
2023-01-20T21:33:19.401Z,100647.77
2023-01-20T21:35:51.999Z,100647.52
2023-01-20T21:38:24.616Z,100656.09
2023-01-20T21:41:02.872Z,100649.72
2023-01-20T21:43:54.633Z,100648.16
2023-01-20T21:46:29.067Z,100650.02
2023-01-20T21:49:19.294Z,100654.75
2023-01-20T21:52:09.281Z,100655.64
2023-01-20T21:54:41.900Z,100657.08
2023-01-20T21:57:14.663Z,100654.98
2023-01-20T21:59:47.243Z,100653.80
2023-01-20T22:02:20.045Z,100654.77
2023-01-20T22:04:52.455Z,100654.19
2023-01-20T22:07:25.527Z,100655.44
2023-01-20T22:09:58.390Z,100649.55
2023-01-20T22:12:34.702Z,100646.63
2023-01-20T22:15:08.946Z,100651.87
2023-01-20T22:17:41.588Z,100657.30
2023-01-20T22:20:16.104Z,100658.08
2023-01-20T22:22:48.736Z,100661.82
2023-01-20T22:25:21.125Z,100665.56
2023-01-20T22:27:53.773Z,100669.10
2023-01-20T22:30:26.164Z,100674.95
2023-01-20T22:32:58.694Z,100673.89
2023-01-20T22:35:32.652Z,100674.14
2023-01-20T22:38:05.610Z,100673.64
2023-01-20T22:40:38.438Z,100669.27
2023-01-20T22:43:10.722Z,100664.45
2023-01-20T22:45:43.134Z,100659.86
2023-01-20T22:48:15.601Z,100658.05
2023-01-20T22:50:48.188Z,100656.33
2023-01-20T22:53:20.677Z,100656.66
2023-01-20T22:56:00.931Z,100659.73
2023-01-20T22:58:34.632Z,100653.35
2023-01-20T23:01:12.554Z,100649.59
2023-01-20T23:03:45.939Z,100648.27
2023-01-20T23:06:18.386Z,100649.09
2023-01-20T23:08:51.318Z,100647.23
2023-01-20T23:11:25.022Z,100643.77
2023-01-20T23:13:57.549Z,100650.56
2023-01-20T23:16:30.125Z,100656.66
2023-01-20T23:19:02.477Z,100653.93
2023-01-20T23:21:35.077Z,100651.02
2023-01-20T23:24:09.108Z,100647.38
2023-01-20T23:26:41.468Z,100644.81
2023-01-20T23:29:14.014Z,100641.09
2023-01-20T23:31:46.404Z,100640.02
2023-01-20T23:34:18.837Z,100639.19
2023-01-20T23:36:51.237Z,100640.04
2023-01-20T23:39:24.077Z,100634.97
2023-01-20T23:41:56.725Z,100632.71
2023-01-20T23:44:29.173Z,100630.59
2023-01-20T23:47:01.523Z,100628.40
2023-01-20T23:49:33.976Z,100627.22
2023-01-20T23:52:06.548Z,100619.31
2023-01-20T23:54:38.845Z,100611.77
2023-01-20T23:57:11.192Z,100604.78
2023-01-20T23:59:44.745Z,100597.10
